Time;durP1;ratioP1;P1;durP2;ratioP2;P2;SDS_P1;SDS_P2;PMS_P1;PMS_P2;Temp;Humidity;BMP_temperature;BMP_pressure;BME280_temperature;BME280_humidity;BME280_pressure;Samples;Min_cycle;Max_cycle;Signal;HPM_P1;HPM_P2
2023/11/25 00:04:19;;;;;;;2.07;1.57;;;;;;;0.59;100.00;98521.27;5062815;56;1134809;-73
2023/11/25 00:09:25;;;;;;;2.30;1.40;;;;;;;0.59;100.00;98527.77;5045076;57;1134592;-73
2023/11/25 00:14:30;;;;;;;4.85;1.67;;;;;;;0.57;100.00;98533.54;5104769;56;1208489;-74
2023/11/25 00:19:36;;;;;;;7.90;2.85;;;;;;;0.55;100.00;98532.81;5065850;56;1134623;-72
2023/11/25 00:24:41;;;;;;;3.55;2.37;;;;;;;0.58;100.00;98549.05;5048567;57;1134759;-72
2023/11/25 00:29:47;;;;;;;4.42;2.47;;;;;;;0.56;100.00;98549.61;5054511;56;1134564;-73
2023/11/25 00:34:52;;;;;;;5.03;1.42;;;;;;;0.58;100.00;98563.81;4993550;57;1134424;-72
2023/11/25 00:39:59;;;;;;;4.70;2.40;;;;;;;0.56;100.00;98569.12;5025085;57;1134653;-72
2023/11/25 00:45:05;;;;;;;5.70;2.80;;;;;;;0.57;100.00;98582.95;5129532;56;1134729;-72
2023/11/25 00:50:15;;;;;;;3.53;2.43;;;;;;;0.54;100.00;98602.20;5153869;56;1134987;-73
2023/11/25 00:55:20;;;;;;;4.33;1.80;;;;;;;0.49;100.00;98603.43;5129458;56;1134717;-73
2023/11/25 01:00:26;;;;;;;4.43;2.47;;;;;;;0.48;100.00;98606.50;5047125;57;1134648;-73
2023/11/25 01:05:32;;;;;;;6.40;2.63;;;;;;;0.47;100.00;98618.30;5132010;56;1134557;-72
2023/11/25 01:10:37;;;;;;;5.07;2.90;;;;;;;0.44;100.00;98619.36;5150152;56;1134711;-73
2023/11/25 01:15:43;;;;;;;6.23;3.20;;;;;;;0.43;100.00;98620.30;5096517;56;1134811;-73
2023/11/25 01:20:49;;;;;;;6.07;3.40;;;;;;;0.40;100.00;98624.39;5046437;57;1134659;-73
2023/11/25 01:25:54;;;;;;;9.33;4.43;;;;;;;0.45;100.00;98636.63;5080771;56;1134487;-72
2023/11/25 01:31:00;;;;;;;12.70;4.37;;;;;;;0.44;100.00;98640.63;5133318;56;1134764;-72
2023/11/25 01:36:09;;;;;;;9.30;4.90;;;;;;;0.41;100.00;98643.43;5127646;56;1136638;-72
2023/11/25 01:41:14;;;;;;;12.43;5.27;;;;;;;0.39;100.00;98656.53;5074853;56;1135222;-73
2023/11/25 01:46:38;;;;;;;12.33;4.80;;;;;;;0.34;100.00;98653.39;5119867;56;1182654;-73
2023/11/25 01:51:44;;;;;;;;;;;;;;;0.30;100.00;98664.48;5130752;56;1136557;-72
2023/11/25 01:56:53;;;;;;;11.83;5.42;;;;;;;0.25;100.00;98662.64;5150982;56;971991;-73
2023/11/25 02:02:10;;;;;;;10.05;5.53;;;;;;;0.23;100.00;98674.90;5064210;57;1134639;-73
2023/11/25 02:07:13;;;;;;;11.27;5.73;;;;;;;0.20;100.00;98682.89;5108079;56;1136671;-72
2023/11/25 02:12:19;;;;;;;10.60;4.80;;;;;;;0.15;100.00;98681.08;5119453;56;1136597;-72
2023/11/25 02:17:24;;;;;;;13.53;6.60;;;;;;;0.14;100.00;98693.70;5086461;56;1136734;-73
2023/11/25 02:22:30;;;;;;;10.37;5.20;;;;;;;0.12;100.00;98704.66;5047531;57;1136648;-73
2023/11/25 02:27:35;;;;;;;11.45;6.62;;;;;;;0.11;100.00;98701.69;5044237;57;1136942;-72
2023/11/25 02:32:41;;;;;;;13.87;6.10;;;;;;;0.14;100.00;98708.46;5063882;57;1136812;-73
2023/11/25 02:37:47;;;;;;;12.70;5.53;;;;;;;0.11;100.00;98721.18;5069617;56;1136717;-73
2023/11/25 02:42:52;;;;;;;9.83;5.70;;;;;;;0.10;100.00;98724.70;5128781;56;1136911;-72
2023/11/25 02:47:59;;;;;;;16.10;5.87;;;;;;;0.10;100.00;98726.47;5148375;56;1134589;-73
2023/11/25 02:53:04;;;;;;;15.63;6.43;;;;;;;0.11;100.00;98733.34;5122821;56;1136800;-73
2023/11/25 02:58:11;;;;;;;13.57;5.00;;;;;;;0.12;100.00;98746.25;5126487;56;1136526;-72
2023/11/25 03:03:22;;;;;;;12.40;5.20;;;;;;;0.09;100.00;98751.63;5166197;56;1136819;-73
2023/11/25 03:08:27;;;;;;;12.10;6.73;;;;;;;0.09;100.00;98758.59;5128988;56;1136647;-73
2023/11/25 03:13:33;;;;;;;8.05;5.65;;;;;;;0.14;100.00;98761.75;5136118;56;1136783;-73
2023/11/25 03:18:39;;;;;;;8.67;5.63;;;;;;;0.17;100.00;98767.56;5043175;56;1134616;-72
2023/11/25 03:23:44;;;;;;;12.03;5.67;;;;;;;0.19;100.00;98776.10;5064511;57;1134816;-72
2023/11/25 03:28:50;;;;;;;10.35;5.47;;;;;;;0.26;100.00;98768.77;5049935;56;1136638;-73
2023/11/25 03:33:56;;;;;;;9.63;5.17;;;;;;;0.30;100.00;98778.05;5066934;56;1136962;-72
2023/11/25 03:39:01;;;;;;;18.63;7.27;;;;;;;0.32;100.00;98792.59;5148011;56;1134566;-72
2023/11/25 03:44:07;;;;;;;10.70;5.13;;;;;;;0.31;100.00;98788.78;4967231;57;1136959;-73
2023/11/25 03:49:13;;;;;;;7.70;4.20;;;;;;;0.33;100.00;98786.46;5041112;56;1137117;-73
2023/11/25 03:54:18;;;;;;;7.67;4.70;;;;;;;0.31;100.00;98787.48;5013395;57;1134639;-72
2023/11/25 03:59:24;;;;;;;5.67;3.87;;;;;;;0.28;100.00;98791.60;5126594;56;1134585;-73
2023/11/25 04:04:30;;;;;;;7.83;4.57;;;;;;;0.24;100.00;98792.72;5126719;56;1134526;-73
2023/11/25 04:09:35;;;;;;;6.00;3.70;;;;;;;0.22;100.00;98802.38;5132341;56;1134463;-73
2023/11/25 04:14:41;;;;;;;9.00;5.00;;;;;;;0.24;100.00;98807.85;5149423;56;1134835;-72
2023/11/25 04:19:47;;;;;;;5.67;3.23;;;;;;;0.23;100.00;98814.44;5127808;56;1134633;-73
2023/11/25 04:24:53;;;;;;;8.03;4.80;;;;;;;0.24;100.00;98820.85;5130292;56;1134701;-72
2023/11/25 04:29:58;;;;;;;8.93;4.50;;;;;;;0.19;100.00;98818.16;5075050;56;1134674;-72
2023/11/25 04:35:10;;;;;;;7.63;3.17;;;;;;;0.15;100.00;98824.04;5127451;56;1134854;-72
2023/11/25 04:40:13;;;;;;;9.40;3.77;;;;;;;0.13;100.00;98832.39;5125989;56;1134616;-72
2023/11/25 04:45:20;;;;;;;5.10;2.40;;;;;;;0.12;100.00;98832.02;5104379;55;1134580;-72
2023/11/25 04:50:26;;;;;;;10.13;2.93;;;;;;;0.12;100.00;98835.92;5125233;56;1135048;-73
2023/11/25 04:55:32;;;;;;;3.90;2.23;;;;;;;0.15;100.00;98846.13;5133500;56;1137116;-73
2023/11/25 05:00:38;;;;;;;6.90;2.87;;;;;;;0.16;100.00;98846.47;5150780;56;1134955;-73
2023/11/25 05:05:45;;;;;;;6.67;3.20;;;;;;;0.18;100.00;98852.88;5154477;56;1134812;-75
2023/11/25 05:10:52;;;;;;;4.30;2.83;;;;;;;0.20;100.00;98866.63;5131498;55;1134893;-73
2023/11/25 05:15:57;;;;;;;6.10;2.62;;;;;;;0.23;100.00;98886.77;5129098;56;1134586;-72
2023/11/25 05:21:04;;;;;;;6.47;2.40;;;;;;;0.23;100.00;98901.54;5148679;56;1134512;-72
2023/11/25 05:26:10;;;;;;;6.28;2.72;;;;;;;0.21;100.00;98908.59;5109707;56;1134643;-73
2023/11/25 05:31:15;;;;;;;12.95;3.15;;;;;;;0.19;100.00;98915.18;5003642;57;1134528;-72
2023/11/25 05:36:21;;;;;;;4.67;2.27;;;;;;;0.17;100.00;98918.80;5092885;56;1136730;-73
2023/11/25 05:41:27;;;;;;;12.53;3.33;;;;;;;0.15;100.00;98925.87;5138338;56;1134516;-72
2023/11/25 05:46:33;;;;;;;8.18;2.92;;;;;;;0.13;100.00;98932.47;5137693;56;1136619;-73
2023/11/25 05:51:45;;;;;;;4.20;2.20;;;;;;;0.09;100.00;98940.06;5136278;55;1134752;-72
2023/11/25 05:56:48;;;;;;;7.70;2.60;;;;;;;0.09;100.00;98947.86;5157505;56;1134862;-73
2023/11/25 06:01:54;;;;;;;7.67;3.43;;;;;;;0.07;100.00;98952.31;5108077;56;1134662;-72
2023/11/25 06:06:59;;;;;;;8.00;3.83;;;;;;;0.09;100.00;98963.92;5104296;55;1134854;-74
2023/11/25 06:12:09;;;;;;;5.13;3.03;;;;;;;0.08;100.00;98966.15;5115982;56;1134709;-73
2023/11/25 06:17:13;;;;;;;4.23;2.93;;;;;;;0.08;100.00;98974.78;5067899;56;1134562;-73
2023/11/25 06:22:19;;;;;;;4.53;2.10;;;;;;;0.10;100.00;98976.00;5135303;56;1134493;-72
2023/11/25 06:27:25;;;;;;;4.37;1.83;;;;;;;0.12;100.00;98988.44;5116290;56;1134601;-72
2023/11/25 06:32:32;;;;;;;7.30;3.33;;;;;;;0.11;100.00;98999.30;5100008;56;1134836;-72
2023/11/25 06:37:40;;;;;;;9.73;3.50;;;;;;;0.12;100.00;99001.44;5067350;56;1134959;-73
2023/11/25 06:42:45;;;;;;;6.77;2.80;;;;;;;0.13;100.00;99006.55;5099810;56;1134396;-73
2023/11/25 06:47:51;;;;;;;4.73;2.60;;;;;;;0.10;100.00;99004.59;5042822;57;1134661;-73
2023/11/25 06:52:56;;;;;;;4.97;2.07;;;;;;;0.08;100.00;99018.13;5042967;57;1134478;-73
2023/11/25 06:58:03;;;;;;;3.87;1.93;;;;;;;0.10;100.00;99022.78;5063231;57;1134788;-73
2023/11/25 07:03:09;;;;;;;6.30;2.33;;;;;;;0.14;100.00;99035.52;5054323;56;1134827;-73
2023/11/25 07:08:15;;;;;;;4.17;2.33;;;;;;;0.13;100.00;99042.94;5033088;57;1134851;-72
2023/11/25 07:13:22;;;;;;;4.70;2.50;;;;;;;0.19;100.00;99043.86;5076295;56;1134528;-73
2023/11/25 07:18:28;;;;;;;3.40;1.63;;;;;;;0.27;100.00;99055.97;5048367;56;1134752;-73
2023/11/25 07:23:33;;;;;;;1.73;1.43;;;;;;;0.30;100.00;99060.99;4968980;57;1134741;-73
2023/11/25 07:28:39;;;;;;;4.17;1.90;;;;;;;0.33;100.00;99063.39;5054217;56;1134743;-73
2023/11/25 07:33:45;;;;;;;5.70;2.80;;;;;;;0.35;100.00;99067.20;5088767;56;1134618;-73
2023/11/25 07:38:53;;;;;;;7.90;3.23;;;;;;;0.38;100.00;99059.22;5066458;56;1134565;-73
2023/11/25 07:43:58;;;;;;;3.07;2.13;;;;;;;0.39;100.00;99067.40;5060165;56;1134693;-73
2023/11/25 07:49:04;;;;;;;3.53;1.53;;;;;;;0.41;100.00;99069.45;5087384;56;1134621;-73
2023/11/25 07:54:09;;;;;;;1.52;1.32;;;;;;;0.43;100.00;99062.39;5101253;56;1134568;-72
2023/11/25 07:59:15;;;;;;;5.63;2.87;;;;;;;0.45;100.00;99079.22;4985562;57;1134821;-71
2023/11/25 08:04:22;;;;;;;2.03;1.33;;;;;;;0.46;100.00;99079.09;5075344;56;1136940;-71
2023/11/25 08:09:28;;;;;;;7.90;2.43;;;;;;;0.48;100.00;99095.45;5053914;56;1135064;-72
2023/11/25 08:14:33;;;;;;;6.45;3.42;;;;;;;0.50;100.00;99091.00;5105107;55;1135186;-72
2023/11/25 08:19:39;;;;;;;4.57;2.17;;;;;;;0.56;100.00;99109.31;5112961;56;1134430;-71
2023/11/25 08:24:44;;;;;;;2.73;1.37;;;;;;;0.60;100.00;99109.52;5158972;55;1134744;-73
2023/11/25 08:29:50;;;;;;;2.70;1.73;;;;;;;0.60;100.00;99116.02;5076586;56;1134539;-73
2023/11/25 08:34:55;;;;;;;4.77;1.57;;;;;;;0.61;100.00;99113.80;5138098;56;1134307;-73
2023/11/25 08:40:04;;;;;;;2.75;2.20;;;;;;;0.63;100.00;99126.22;5116234;56;1134757;-75
2023/11/25 08:45:09;;;;;;;5.30;1.80;;;;;;;0.63;100.00;99134.02;5123325;55;1134761;-73
2023/11/25 08:50:15;;;;;;;6.83;1.50;;;;;;;0.67;100.00;99145.47;5136501;56;1134696;-74
2023/11/25 08:55:22;;;;;;;4.37;2.50;;;;;;;0.72;100.00;99143.07;5136906;56;1134557;-76
2023/11/25 09:00:29;;;;;;;6.17;3.17;;;;;;;0.79;100.00;99143.06;5115822;56;1134514;-75
2023/11/25 09:05:39;;;;;;;12.20;3.98;;;;;;;0.80;100.00;99150.78;5109739;56;1134594;-73
2023/11/25 09:10:43;;;;;;;7.50;2.50;;;;;;;0.83;100.00;99151.91;5140813;56;1136701;-74
2023/11/25 09:15:50;;;;;;;5.40;2.30;;;;;;;0.84;100.00;99162.69;5077935;56;1134698;-74
2023/11/25 09:20:56;;;;;;;4.47;1.93;;;;;;;0.87;100.00;99163.81;5126370;56;1134657;-75
2023/11/25 09:26:03;;;;;;;2.46;1.70;;;;;;;0.90;100.00;99174.05;5105009;56;1134477;-76
2023/11/25 09:31:08;;;;;;;4.28;2.50;;;;;;;0.93;100.00;99179.05;5107235;56;1134772;-74
2023/11/25 09:36:14;;;;;;;3.27;2.40;;;;;;;0.97;100.00;99177.11;5130135;56;1134768;-75
2023/11/25 09:41:20;;;;;;;6.47;3.00;;;;;;;0.95;100.00;99176.36;5157231;56;1134645;-75
2023/11/25 09:46:27;;;;;;;3.20;2.03;;;;;;;0.96;100.00;99174.12;4968827;57;1134572;-75
2023/11/25 09:51:33;;;;;;;4.10;1.93;;;;;;;0.96;100.00;99175.43;5073296;56;1134698;-77
2023/11/25 09:56:41;;;;;;;3.00;2.15;;;;;;;0.94;100.00;99174.22;5087309;56;1134664;-77
2023/11/25 10:01:48;;;;;;;6.33;1.67;;;;;;;0.97;100.00;99181.84;5079302;56;1134697;-78
2023/11/25 10:06:54;;;;;;;1.70;1.30;;;;;;;0.98;100.00;99174.41;5080917;56;1134587;-76
2023/11/25 10:12:02;;;;;;;1.50;1.20;;;;;;;1.00;100.00;99182.14;5074659;56;1134893;-75
2023/11/25 10:17:24;;;;;;;4.60;1.83;;;;;;;0.95;100.00;99188.91;5089365;56;1136710;-76
2023/11/25 10:22:30;;;;;;;5.97;2.27;;;;;;;0.96;100.00;99185.84;4987129;57;1134680;-75
2023/11/25 10:27:36;;;;;;;4.58;2.00;;;;;;;0.93;100.00;99186.02;5074295;56;1134491;-74
2023/11/25 10:32:42;;;;;;;3.67;1.30;;;;;;;0.89;100.00;99187.16;5082382;56;1134723;-73
2023/11/25 10:37:48;;;;;;;2.10;1.00;;;;;;;0.81;100.00;99181.08;5126946;56;1134751;-77
2023/11/25 10:42:54;;;;;;;7.73;2.07;;;;;;;0.76;100.00;99181.84;5099048;56;1134906;-76
2023/11/25 10:48:00;;;;;;;4.97;2.20;;;;;;;0.75;100.00;99179.32;5108950;56;1134554;-77
2023/11/25 10:53:07;;;;;;;3.57;1.87;;;;;;;0.78;100.00;99186.92;5046682;56;1134766;-76
2023/11/25 10:58:15;;;;;;;5.42;2.10;;;;;;;0.79;100.00;99185.53;5051319;56;1134912;-76
2023/11/25 11:03:24;;;;;;;2.47;1.87;;;;;;;0.82;100.00;99181.45;5062656;56;1134759;-77
2023/11/25 11:08:43;;;;;;;3.63;1.87;;;;;;;0.83;100.00;99175.33;5045091;56;1134698;-76
2023/11/25 11:14:01;;;;;;;4.53;2.17;;;;;;;0.85;100.00;99173.94;5072151;55;1134646;-77
2023/11/25 11:19:13;;;;;;;4.57;2.40;;;;;;;0.83;100.00;99170.59;4991483;57;1134327;-78
2023/11/25 11:24:26;;;;;;;5.67;2.50;;;;;;;0.84;100.00;99177.00;4981796;57;1134549;-77
2023/11/25 11:29:42;;;;;;;11.20;3.70;;;;;;;0.89;100.00;99180.64;5049242;56;1134674;-76
2023/11/25 11:34:49;;;;;;;5.77;2.40;;;;;;;0.91;100.00;99178.80;5036692;56;1136954;-77
2023/11/25 11:39:59;;;;;;;5.27;2.07;;;;;;;0.99;100.00;99190.88;5067506;56;1134600;-76
2023/11/25 11:45:19;;;;;;;7.03;2.20;;;;;;;1.05;100.00;99192.66;5062204;56;1135069;-76
2023/11/25 11:50:35;;;;;;;3.05;1.62;;;;;;;1.08;100.00;99192.08;5088425;56;1134688;-76
2023/11/25 11:55:54;;;;;;;8.53;3.10;;;;;;;1.04;100.00;99184.94;5106092;56;1134759;-78
2023/11/25 12:01:08;;;;;;;7.33;3.47;;;;;;;1.03;100.00;99182.80;5122959;56;1134770;-76
2023/11/25 12:06:16;;;;;;;6.13;3.57;;;;;;;1.01;100.00;99185.11;5126958;56;1134748;-79
2023/11/25 12:11:21;;;;;;;6.37;2.87;;;;;;;1.02;100.00;99181.12;5084186;56;1134681;-78
2023/11/25 12:16:26;;;;;;;10.83;4.17;;;;;;;1.00;100.00;99185.58;5126812;56;1134716;-69
2023/11/25 12:21:32;;;;;;;7.87;3.60;;;;;;;1.00;100.00;99177.77;5093409;56;1136692;-83
2023/11/25 12:26:40;;;;;;;8.73;2.97;;;;;;;1.00;100.00;99177.77;5098296;56;1134684;-83
2023/11/25 12:31:45;;;;;;;6.53;2.45;;;;;;;1.03;100.00;99180.66;5143966;56;1134732;-77
2023/11/25 12:36:51;;;;;;;11.43;4.93;;;;;;;1.05;100.00;99170.99;5140897;56;1135031;-81
2023/11/25 12:41:57;;;;;;;40.93;15.13;;;;;;;1.03;100.00;99171.08;5097334;56;1136863;-82
2023/11/25 12:47:07;;;;;;;26.77;10.43;;;;;;;1.04;100.00;99167.55;5089298;56;1138562;-84
2023/11/25 12:52:24;;;;;;;20.44;6.20;;;;;;;1.05;100.00;99160.58;5069266;56;1138733;-84
2023/11/25 12:57:32;;;;;;;11.75;4.60;;;;;;;1.07;100.00;99160.48;5084135;55;1136699;-81
2023/11/25 13:02:38;;;;;;;9.10;4.05;;;;;;;1.06;100.00;99172.67;5136883;56;1136688;-86
2023/11/25 13:07:58;;;;;;;12.03;4.40;;;;;;;1.10;100.00;99179.80;5028973;56;1134505;-88
2023/11/25 13:12:54;;;;;;;19.33;7.93;;;;;;;1.12;100.00;99170.98;5001923;56;1136801;-77
2023/11/25 13:18:00;;;;;;;12.20;5.60;;;;;;;1.15;100.00;99172.10;5158469;56;1136694;-81
2023/11/25 13:23:05;;;;;;;11.03;4.30;;;;;;;1.16;100.00;99176.84;5172455;56;1136512;-76
2023/11/25 13:28:11;;;;;;;12.70;7.10;;;;;;;1.17;100.00;99183.27;5100935;56;1136594;-73
2023/11/25 13:33:17;;;;;;;22.23;12.63;;;;;;;1.17;100.00;99184.56;5140850;55;1136550;-74
2023/11/25 13:38:22;;;;;;;13.03;5.40;;;;;;;1.21;100.00;99194.34;5077331;56;1138786;-73
2023/11/25 13:43:28;;;;;;;14.53;7.43;;;;;;;1.20;100.00;99196.11;5056355;56;1136725;-72
2023/11/25 13:48:34;;;;;;;10.90;6.20;;;;;;;1.24;100.00;99198.03;4973874;56;1136577;-73
2023/11/25 13:53:40;;;;;;;14.93;5.93;;;;;;;1.28;100.00;99202.98;5012509;58;1136708;-74
2023/11/25 13:58:45;;;;;;;17.07;7.67;;;;;;;1.29;100.00;99205.12;4973843;58;1136666;-74
2023/11/25 14:03:56;;;;;;;22.60;9.43;;;;;;;1.29;100.00;99211.62;5060252;56;1136691;-74
2023/11/25 14:08:58;;;;;;;21.45;8.35;;;;;;;1.27;100.00;99211.72;5123586;56;1137011;-75
2023/11/25 14:14:05;;;;;;;25.10;10.63;;;;;;;1.26;100.00;99214.41;5030748;56;1136881;-75
2023/11/25 14:19:11;;;;;;;17.83;7.60;;;;;;;1.23;100.00;99210.22;5063860;57;1138590;-75
2023/11/25 14:24:16;;;;;;;16.60;7.07;;;;;;;1.25;100.00;99213.57;5013971;57;1136415;-76
2023/11/25 14:29:22;;;;;;;24.98;9.10;;;;;;;1.22;100.00;99215.05;5017457;56;1136772;-75
2023/11/25 14:34:28;;;;;;;14.45;6.70;;;;;;;1.22;100.00;99214.24;5020640;56;1136800;-75
2023/11/25 14:39:34;;;;;;;20.38;6.80;;;;;;;1.20;100.00;99217.40;5055010;57;1136887;-75
2023/11/25 14:44:43;;;;;;;31.63;10.67;;;;;;;1.17;100.00;99226.23;5086952;57;1136645;-74
2023/11/25 14:49:48;;;;;;;17.57;6.77;;;;;;;1.15;100.00;99229.84;5102977;56;1138638;-75
2023/11/25 14:54:53;;;;;;;15.20;6.43;;;;;;;1.14;100.00;99221.20;5055801;56;1136524;-75
2023/11/25 15:00:00;;;;;;;18.75;7.17;;;;;;;1.12;100.00;99224.81;5062216;57;1136797;-75
2023/11/25 15:05:06;;;;;;;23.97;10.43;;;;;;;1.15;100.00;99237.20;5059387;57;1136731;-74
2023/11/25 15:10:12;;;;;;;19.13;8.70;;;;;;;1.20;100.00;99240.84;5042615;57;1138657;-75
2023/11/25 15:15:19;;;;;;;24.27;12.60;;;;;;;1.24;100.00;99250.95;5062615;57;1136625;-74
2023/11/25 15:20:24;;;;;;;18.10;10.80;;;;;;;1.20;100.00;99242.98;5041400;57;1138772;-75
2023/11/25 15:25:31;;;;;;;18.85;9.48;;;;;;;1.17;100.00;99244.45;5042658;57;1138681;-75
2023/11/25 15:30:37;;;;;;;20.65;10.45;;;;;;;1.17;100.00;99241.02;5087471;56;1136939;-73
2023/11/25 15:35:42;;;;;;;13.03;8.07;;;;;;;1.14;100.00;99248.54;5146567;56;1138996;-74
2023/11/25 15:40:48;;;;;;;9.37;6.30;;;;;;;1.10;100.00;99241.83;5123839;56;1136589;-72
2023/11/25 15:45:53;;;;;;;23.13;10.13;;;;;;;1.08;100.00;99237.63;5076374;56;1134849;-77
2023/11/25 15:51:01;;;;;;;19.97;9.00;;;;;;;1.09;100.00;99244.52;5139189;55;1138748;-81
2023/11/25 15:56:07;;;;;;;16.70;8.63;;;;;;;1.09;100.00;99253.17;5097352;55;1136715;-76
2023/11/25 16:01:16;;;;;;;73.00;20.83;;;;;;;1.10;100.00;99244.89;5136470;55;1137022;-77
2023/11/25 16:06:21;;;;;;;28.03;9.17;;;;;;;1.04;100.00;99244.35;5109563;56;1138865;-78
2023/11/25 16:11:27;;;;;;;31.43;10.77;;;;;;;1.01;100.00;99250.20;5138515;55;1136471;-72
2023/11/25 16:16:35;;;;;;;33.73;12.90;;;;;;;1.00;100.00;99244.61;5049848;57;1138800;-77
2023/11/25 16:21:40;;;;;;;54.70;16.30;;;;;;;1.01;100.00;99252.80;5059354;56;1138756;-81
2023/11/25 16:26:46;;;;;;;47.33;15.80;;;;;;;0.99;100.00;99254.19;5115954;56;1138909;-74
2023/11/25 16:31:51;;;;;;;39.63;15.07;;;;;;;0.99;100.00;99258.55;5132522;56;1138683;-79
2023/11/25 16:36:57;;;;;;;38.17;14.20;;;;;;;0.98;100.00;99265.52;5056913;56;1139115;-81
2023/11/25 16:42:02;;;;;;;30.23;15.20;;;;;;;0.96;100.00;99264.77;5072663;56;1138733;-77
2023/11/25 16:47:09;;;;;;;29.47;13.50;;;;;;;0.98;100.00;99267.29;5053044;56;1138694;-81
2023/11/25 16:52:14;;;;;;;24.30;12.27;;;;;;;0.96;100.00;99269.98;5043827;57;1138850;-78
2023/11/25 16:57:20;;;;;;;27.77;14.97;;;;;;;0.93;100.00;99281.86;5062107;56;1138724;-74
2023/11/25 17:02:27;;;;;;;32.20;15.33;;;;;;;0.92;100.00;99291.06;5042923;56;1138629;-76
2023/11/25 17:07:33;;;;;;;33.87;16.97;;;;;;;0.95;100.00;99294.33;5042879;56;1138964;-74
2023/11/25 17:12:38;;;;;;;34.87;14.43;;;;;;;0.95;100.00;99300.84;5042947;56;1138912;-73
2023/11/25 17:17:44;;;;;;;30.50;14.18;;;;;;;0.95;100.00;99300.84;5060553;56;1138679;-69
2023/11/25 17:22:49;;;;;;;29.10;13.83;;;;;;;0.99;100.00;99302.81;5082724;56;1138752;-72
2023/11/25 17:27:55;;;;;;;22.50;12.40;;;;;;;1.03;100.00;99310.36;5126157;56;1138884;-75
2023/11/25 17:33:00;;;;;;;20.30;10.93;;;;;;;1.03;100.00;99319.48;5146972;56;1138682;-76
2023/11/25 17:38:06;;;;;;;27.00;13.73;;;;;;;1.01;100.00;99316.58;5126035;56;1138990;-74
2023/11/25 17:43:12;;;;;;;28.77;14.43;;;;;;;1.01;100.00;99320.02;5126092;56;1138653;-75
2023/11/25 17:48:17;;;;;;;45.10;20.20;;;;;;;0.99;100.00;99325.78;5066408;56;1138676;-78
2023/11/25 17:53:23;;;;;;;55.37;20.57;;;;;;;1.01;100.00;99329.59;5019383;56;1138812;-71
2023/11/25 17:58:28;;;;;;;47.00;18.20;;;;;;;1.00;100.00;99334.42;5077534;56;1138855;-80
2023/11/25 18:03:34;;;;;;;83.17;28.35;;;;;;;0.97;100.00;99335.89;5066946;56;1138770;-73
2023/11/25 18:08:40;;;;;;;64.07;24.85;;;;;;;0.97;100.00;99339.80;5088983;56;1138888;-73
2023/11/25 18:13:46;;;;;;;65.03;27.27;;;;;;;0.96;100.00;99344.17;5054679;57;1139128;-76
2023/11/25 18:18:52;;;;;;;47.40;20.33;;;;;;;0.94;100.00;99358.19;5074959;56;1138920;-77
2023/11/25 18:23:58;;;;;;;30.13;14.57;;;;;;;0.96;100.00;99362.39;5074725;57;1138688;-76
2023/11/25 18:29:03;;;;;;;28.27;15.70;;;;;;;1.00;100.00;99370.88;5042877;56;1138949;-73
2023/11/25 18:34:09;;;;;;;48.43;30.90;;;;;;;0.95;100.00;99384.14;5047225;57;1138529;-78
2023/11/25 18:39:14;;;;;;;40.10;25.77;;;;;;;0.95;100.00;99389.34;5075813;56;1138714;-77
2023/11/25 18:44:20;;;;;;;36.03;16.27;;;;;;;0.93;100.00;99399.46;5043311;56;1138751;-72
2023/11/25 18:49:26;;;;;;;32.20;13.67;;;;;;;0.93;100.00;99399.00;5040697;56;1230853;-76
2023/11/25 18:54:33;;;;;;;37.55;19.67;;;;;;;0.96;100.00;99400.59;5072335;56;1138523;-73
2023/11/25 18:59:38;;;;;;;25.43;14.60;;;;;;;0.94;100.00;99401.98;5085606;55;1138899;-73
2023/11/25 19:04:44;;;;;;;28.62;15.10;;;;;;;0.94;100.00;99405.05;5045733;55;1138720;-77
2023/11/25 19:09:51;;;;;;;52.93;26.07;;;;;;;0.94;100.00;99404.59;5084878;56;1138731;-77
2023/11/25 19:14:58;;;;;;;44.17;25.87;;;;;;;0.93;100.00;99412.02;5097932;56;1138865;-72
2023/11/25 19:20:08;;;;;;;20.80;11.47;;;;;;;0.92;100.00;99421.20;5070223;56;1138873;-73
2023/11/25 19:25:14;;;;;;;24.97;11.43;;;;;;;0.92;100.00;99421.20;5057725;55;1139708;-73
2023/11/25 19:30:20;;;;;;;27.63;12.20;;;;;;;0.96;100.00;99426.62;5097833;56;1138851;-78
2023/11/25 19:35:26;;;;;;;21.43;8.63;;;;;;;0.92;100.00;99423.34;5059397;56;1138602;-75
2023/11/25 19:40:32;;;;;;;25.27;12.00;;;;;;;0.95;100.00;99440.56;5097477;56;1136633;-78
2023/11/25 19:45:37;;;;;;;26.07;15.13;;;;;;;0.95;100.00;99439.27;5070592;56;1139106;-74
2023/11/25 19:50:44;;;;;;;25.23;9.93;;;;;;;0.90;100.00;99450.42;5103443;55;1138898;-76
2023/11/25 19:55:49;;;;;;;23.87;8.80;;;;;;;0.82;100.00;99451.28;5043098;56;1136738;-75
2023/11/25 20:00:55;;;;;;;19.57;7.87;;;;;;;0.81;100.00;99465.22;5043465;56;1136560;-75
2023/11/25 20:06:01;;;;;;;13.70;6.13;;;;;;;0.84;100.00;99463.75;5062231;56;1136491;-72
2023/11/25 20:11:07;;;;;;;18.70;7.07;;;;;;;0.79;100.00;99465.30;5051317;56;1177315;-79
2023/11/25 20:16:13;;;;;;;21.13;7.13;;;;;;;0.75;100.00;99470.77;5040331;57;1136616;-70
2023/11/25 20:21:18;;;;;;;19.97;6.53;;;;;;;0.72;100.00;99479.58;5061346;57;1136890;-71
2023/11/25 20:26:24;;;;;;;15.38;6.20;;;;;;;0.69;100.00;99484.48;5045141;56;1136780;-73
2023/11/25 20:31:30;;;;;;;13.68;5.28;;;;;;;0.68;100.00;99493.20;5051753;55;1136521;-74
2023/11/25 20:36:36;;;;;;;27.00;12.60;;;;;;;0.70;100.00;99495.73;5061494;57;1235329;-76
2023/11/25 20:41:42;;;;;;;16.10;7.03;;;;;;;0.71;100.00;99500.02;5062670;57;1139203;-73
2023/11/25 20:46:47;;;;;;;12.53;6.43;;;;;;;0.69;100.00;99507.06;5053055;56;1136772;-77
2023/11/25 20:51:53;;;;;;;9.03;4.43;;;;;;;0.66;100.00;99523.67;5039749;55;1136565;-71
2023/11/25 20:56:58;;;;;;;6.47;3.97;;;;;;;0.65;100.00;99525.89;5140958;55;1134551;-77
2023/11/25 21:02:04;;;;;;;24.33;14.03;;;;;;;0.63;100.00;99542.04;5155267;55;1134734;-77
2023/11/25 21:07:10;;;;;;;22.60;11.87;;;;;;;0.56;100.00;99548.96;5141472;56;1138829;-71
2023/11/25 21:12:16;;;;;;;37.20;23.60;;;;;;;0.55;100.00;99552.48;5161383;56;1138846;-76
2023/11/25 21:17:22;;;;;;;26.20;13.00;;;;;;;0.56;100.00;99557.61;5141988;56;1138775;-76
2023/11/25 21:22:28;;;;;;;127.53;54.50;;;;;;;0.53;100.00;99559.06;5138717;56;1237215;-72
2023/11/25 21:27:37;;;;;;;30.62;16.73;;;;;;;0.52;100.00;99563.04;5140785;56;1140889;-77
2023/11/25 21:32:42;;;;;;;39.60;21.83;;;;;;;0.51;100.00;99563.95;5138483;55;1138867;-77
2023/11/25 21:37:48;;;;;;;20.60;11.53;;;;;;;0.52;100.00;99566.94;5131662;55;1138723;-77
2023/11/25 21:42:54;;;;;;;22.73;13.77;;;;;;;0.47;100.00;99566.33;5140841;56;1138564;-76
2023/11/25 21:48:00;;;;;;;16.03;7.10;;;;;;;0.43;100.00;99564.83;5159127;56;1225166;-77
2023/11/25 21:53:06;;;;;;;19.40;9.57;;;;;;;0.34;100.00;99574.77;5123123;55;1213984;-78
2023/11/25 21:58:11;;;;;;;14.13;5.47;;;;;;;0.30;100.00;99577.62;5161517;55;1225179;-71
2023/11/25 22:03:16;;;;;;;16.57;7.67;;;;;;;0.27;100.00;99577.77;5133054;55;1137321;-75
2023/11/25 22:08:22;;;;;;;30.50;12.50;;;;;;;0.20;100.00;99575.92;5051999;57;1231181;-74
2023/11/25 22:13:28;;;;;;;41.90;14.60;;;;;;;0.27;100.00;99585.11;5054823;56;1250780;-73
2023/11/25 22:18:33;;;;;;;14.80;7.13;;;;;;;0.33;100.00;99591.28;5067482;56;1224158;-73
2023/11/25 22:23:47;;;;;;;10.65;4.62;;;;;;;0.33;100.00;99595.64;5084328;56;1249768;-77
2023/11/25 22:28:46;;;;;;;14.00;5.08;;;;;;;0.28;100.00;99609.36;5078838;56;1183142;-71
2023/11/25 22:33:52;;;;;;;9.23;3.22;;;;;;;0.23;100.00;99608.28;5052780;56;1252086;-73
2023/11/25 22:38:58;;;;;;;8.00;3.40;;;;;;;0.20;100.00;99612.33;5104167;56;1243547;-78
2023/11/25 22:44:04;;;;;;;18.83;6.50;;;;;;;0.17;100.00;99618.13;5105941;56;1135550;-76
2023/11/25 22:49:09;;;;;;;5.13;2.43;;;;;;;0.15;100.00;99621.28;4972839;57;1137490;-84
2023/11/25 22:54:17;;;;;;;12.20;4.03;;;;;;;0.15;100.00;99621.28;4992132;57;1134397;-74
2023/11/25 22:59:22;;;;;;;8.67;4.03;;;;;;;0.14;100.00;99628.25;4996290;57;1136636;-81
2023/11/25 23:04:28;;;;;;;20.10;6.00;;;;;;;0.12;100.00;99623.58;5136191;56;1134265;-81
2023/11/25 23:09:33;;;;;;;29.47;8.13;;;;;;;0.14;100.00;99636.50;5156390;56;1136482;-78
2023/11/25 23:14:39;;;;;;;49.58;9.95;;;;;;;0.10;100.00;99634.96;4978108;57;1136652;-77
2023/11/25 23:19:44;;;;;;;27.45;6.80;;;;;;;0.13;100.00;99637.42;5041929;57;1136824;-73